Time;durP1;ratioP1;P1;durP2;ratioP2;P2;SDS_P1;SDS_P2;PMS_P1;PMS_P2;Temp;Humidity;BMP_temperature;BMP_pressure;BME280_temperature;BME280_humidity;BME280_pressure;Samples;Min_cycle;Max_cycle;Signal;HPM_P1;HPM_P2
2022/05/24 00:01:46;;;;;;;26.55;20.58;;;;;;;;;;5014660;28;93359;-78
2022/05/24 00:04:12;;;;;;;30.88;21.25;;;;;;;;;;5015022;28;93466;-78
2022/05/24 00:06:39;;;;;;;30.10;22.00;;;;;;;;;;5013567;28;92754;-79
2022/05/24 00:09:06;;;;;;;26.00;19.52;;;;;;;;;;5014967;28;94144;-78
2022/05/24 00:11:33;;;;;;;28.77;21.23;;;;;;;;;;5012398;28;96452;-78
2022/05/24 00:13:59;;;;;;;27.70;20.45;;;;;;;;;;5013196;28;93813;-78
2022/05/24 00:16:26;;;;;;;28.63;20.63;;;;;;;;;;5046406;27;94228;-78
2022/05/24 00:18:52;;;;;;;29.80;20.15;;;;;;;;;;5017153;28;94164;-78
2022/05/24 00:21:18;;;;;;;27.65;19.20;;;;;;;;;;5013402;28;93923;-78
2022/05/24 00:23:45;;;;;;;27.23;21.00;;;;;;;;;;5013330;28;93392;-79
2022/05/24 00:26:16;;;;;;;30.35;21.83;;;;;;;;;;5014706;28;92639;-78
2022/05/24 00:28:43;;;;;;;34.45;21.00;;;;;;;;;;5013027;28;94206;-79
2022/05/24 00:31:09;;;;;;;28.67;21.23;;;;;;;;;;5013710;28;93395;-78
2022/05/24 00:33:35;;;;;;;27.88;22.65;;;;;;;;;;5013529;28;92531;-79
2022/05/24 00:36:02;;;;;;;26.98;21.17;;;;;;;;;;5011133;28;94874;-78
2022/05/24 00:38:36;;;;;;;33.03;21.10;;;;;;;;;;5013613;28;93171;-79
2022/05/24 00:41:27;;;;;;;29.77;20.92;;;;;;;;;;5016990;28;92434;-79
2022/05/24 00:44:08;;;;;;;28.50;21.00;;;;;;;;;;5008804;28;94155;-79
2022/05/24 00:46:37;;;;;;;27.15;21.50;;;;;;;;;;5013410;28;92558;-79
2022/05/24 00:49:09;;;;;;;33.67;20.92;;;;;;;;;;5013199;28;93829;-79
2022/05/24 00:51:41;;;;;;;31.23;21.23;;;;;;;;;;5013567;28;94176;-78
2022/05/24 00:54:08;;;;;;;27.77;20.43;;;;;;;;;;5014485;28;91823;-79
2022/05/24 00:56:53;;;;;;;31.42;22.55;;;;;;;;;;5012357;28;93338;-79
2022/05/24 00:59:24;;;;;;;34.28;21.73;;;;;;;;;;5003886;28;94240;-79
2022/05/24 01:01:50;;;;;;;35.28;22.23;;;;;;;;;;5011852;28;94805;-78
2022/05/24 01:04:19;;;;;;;32.58;23.48;;;;;;;;;;5015963;28;96334;-79
2022/05/24 01:06:47;;;;;;;26.38;22.02;;;;;;;;;;5013490;28;92437;-80
2022/05/24 01:09:29;;;;;;;31.00;22.02;;;;;;;;;;5013805;28;94020;-80
2022/05/24 01:12:04;;;;;;;29.17;20.58;;;;;;;;;;5013676;28;93088;-80
2022/05/24 01:14:30;;;;;;;32.03;22.20;;;;;;;;;;5013259;28;92443;-78
2022/05/24 01:16:58;;;;;;;31.30;21.63;;;;;;;;;;5013360;28;94199;-79
2022/05/24 01:19:57;;;;;;;28.98;18.83;;;;;;;;;;5013539;28;91639;-79
2022/05/24 01:22:45;;;;;;;32.00;21.23;;;;;;;;;;4983010;28;92601;-79
2022/05/24 01:25:20;;;;;;;31.60;19.50;;;;;;;;;;4992249;28;93357;-79
2022/05/24 01:27:46;;;;;;;31.52;17.48;;;;;;;;;;5012634;28;96687;-79
2022/05/24 01:30:13;;;;;;;29.60;17.33;;;;;;;;;;5013151;28;96378;-79
2022/05/24 01:38:10;;;;;;;36.83;18.08;;;;;;;;;;5012502;28;93534;-80
2022/05/24 01:40:36;;;;;;;29.23;17.67;;;;;;;;;;5012823;27;93197;-79
2022/05/24 01:43:03;;;;;;;31.65;19.05;;;;;;;;;;5012531;28;92917;-79
2022/05/24 01:45:35;;;;;;;33.55;18.27;;;;;;;;;;5012292;28;93919;-79
2022/05/24 01:48:08;;;;;;;36.00;20.02;;;;;;;;;;5012755;28;94350;-79
2022/05/24 01:50:34;;;;;;;;;;;;;;;;;;5026758;28;92456;-79
2022/05/24 01:53:03;;;;;;;35.35;19.17;;;;;;;;;;5031459;28;124710;-79
2022/05/24 01:55:34;;;;;;;34.10;21.40;;;;;;;;;;5032725;28;92464;-79
2022/05/24 01:58:03;;;;;;;43.10;22.23;;;;;;;;;;5012287;28;94021;-79
2022/05/24 02:00:30;;;;;;;31.23;21.63;;;;;;;;;;5011776;28;94218;-80
2022/05/24 02:02:56;;;;;;;31.25;20.90;;;;;;;;;;5013154;28;93628;-79
2022/05/24 02:05:33;;;;;;;35.75;21.35;;;;;;;;;;5012636;28;93929;-79
2022/05/24 02:08:00;;;;;;;33.97;20.10;;;;;;;;;;5012600;28;94270;-79
2022/05/24 02:10:30;;;;;;;33.22;18.70;;;;;;;;;;5015941;28;91746;-79
2022/05/24 02:12:59;;;;;;;30.00;16.83;;;;;;;;;;5011805;28;94557;-79
2022/05/24 02:15:27;;;;;;;27.25;16.38;;;;;;;;;;5012372;28;92417;-79
2022/05/24 02:17:59;;;;;;;31.05;16.70;;;;;;;;;;5011377;28;95325;-79
2022/05/24 02:20:33;;;;;;;25.38;14.98;;;;;;;;;;5011416;28;94121;-79
2022/05/24 02:23:00;;;;;;;20.05;12.70;;;;;;;;;;5012366;28;92479;-79
2022/05/24 02:25:32;;;;;;;23.45;13.48;;;;;;;;;;5012397;28;93956;-79
2022/05/24 02:27:59;;;;;;;22.50;12.55;;;;;;;;;;5011827;28;94191;-79
2022/05/24 02:30:27;;;;;;;28.08;12.60;;;;;;;;;;5012187;28;92510;-80
2022/05/24 02:32:53;;;;;;;25.95;12.35;;;;;;;;;;5015336;28;94039;-79
2022/05/24 02:35:21;;;;;;;20.80;11.70;;;;;;;;;;5012275;28;92081;-79
2022/05/24 02:37:47;;;;;;;24.90;12.90;;;;;;;;;;5012599;28;92469;-79
2022/05/24 02:42:59;;;;;;;26.02;13.10;;;;;;;;;;5002007;28;94894;-79
2022/05/24 02:45:25;;;;;;;18.40;11.50;;;;;;;;;;5011742;28;96362;-79
2022/05/24 02:47:52;;;;;;;19.92;11.30;;;;;;;;;;5011689;28;94181;-79
2022/05/24 02:50:20;;;;;;;23.90;12.40;;;;;;;;;;5012303;28;92532;-79
2022/05/24 02:52:47;;;;;;;20.45;12.75;;;;;;;;;;5015383;28;94292;-79
2022/05/24 02:55:14;;;;;;;26.02;12.95;;;;;;;;;;5018027;28;94036;-79
2022/05/24 02:57:42;;;;;;;24.90;13.38;;;;;;;;;;5015999;28;93889;-79
2022/05/24 03:00:11;;;;;;;21.05;11.80;;;;;;;;;;5015857;28;93417;-79
2022/05/24 03:02:38;;;;;;;22.70;12.85;;;;;;;;;;5014640;28;92571;-79
2022/05/24 03:05:07;;;;;;;18.45;11.93;;;;;;;;;;5015437;28;94407;-79
2022/05/24 03:10:18;;;;;;;19.95;12.40;;;;;;;;;;5014775;28;92402;-79
2022/05/24 03:15:29;;;;;;;23.30;12.93;;;;;;;;;;5025705;28;93282;-79
2022/05/24 03:17:56;;;;;;;18.50;12.57;;;;;;;;;;5037847;28;92641;-79
2022/05/24 03:20:22;;;;;;;27.70;13.35;;;;;;;;;;5023417;28;94370;-79
2022/05/24 03:22:48;;;;;;;26.70;12.82;;;;;;;;;;5014053;28;92448;-79
2022/05/24 03:25:15;;;;;;;28.80;13.07;;;;;;;;;;5014901;28;93891;-79
2022/05/24 03:27:42;;;;;;;20.58;11.90;;;;;;;;;;5014396;28;94202;-79
2022/05/24 03:30:08;;;;;;;22.80;11.60;;;;;;;;;;5014155;28;92560;-79
2022/05/24 03:32:35;;;;;;;24.00;12.57;;;;;;;;;;5013591;28;94828;-79
2022/05/24 03:35:05;;;;;;;21.38;12.55;;;;;;;;;;5015179;28;93615;-79
2022/05/24 03:37:31;;;;;;;26.65;11.02;;;;;;;;;;5013558;28;92471;-79
2022/05/24 03:39:57;;;;;;;24.67;11.63;;;;;;;;;;5018251;28;92952;-79
2022/05/24 03:42:24;;;;;;;20.50;10.55;;;;;;;;;;5014461;28;93015;-79
2022/05/24 03:44:50;;;;;;;18.40;10.43;;;;;;;;;;5014055;28;94386;-79
2022/05/24 03:47:16;;;;;;;18.48;10.63;;;;;;;;;;5014631;28;93432;-79
2022/05/24 03:49:44;;;;;;;21.75;10.55;;;;;;;;;;5014881;28;92024;-80
2022/05/24 03:52:10;;;;;;;19.17;9.55;;;;;;;;;;5014093;28;93381;-80
2022/05/24 03:54:38;;;;;;;15.82;10.13;;;;;;;;;;5014765;28;94202;-79
2022/05/24 03:59:50;;;;;;;28.27;11.00;;;;;;;;;;4996943;28;96300;-79
2022/05/24 04:02:16;;;;;;;21.65;10.88;;;;;;;;;;4994366;28;92502;-79
2022/05/24 04:04:43;;;;;;;21.02;10.85;;;;;;;;;;4994164;28;93964;-80
2022/05/24 04:07:11;;;;;;;15.90;9.63;;;;;;;;;;5010418;28;94190;-80
2022/05/24 04:09:37;;;;;;;24.13;11.13;;;;;;;;;;5013687;28;92655;-80
2022/05/24 04:12:04;;;;;;;18.70;10.63;;;;;;;;;;5010826;28;93701;-80
2022/05/24 04:14:31;;;;;;;19.50;10.95;;;;;;;;;;5013630;28;93740;-79
2022/05/24 04:16:58;;;;;;;29.52;12.05;;;;;;;;;;5014355;28;92412;-80
2022/05/24 04:19:25;;;;;;;23.98;10.65;;;;;;;;;;5011947;28;93486;-79
2022/05/24 04:21:51;;;;;;;21.65;11.32;;;;;;;;;;5015556;28;95933;-80
2022/05/24 04:24:19;;;;;;;24.75;11.45;;;;;;;;;;5013913;28;94303;-80
2022/05/24 04:26:45;;;;;;;18.75;10.60;;;;;;;;;;5011841;28;94214;-80
2022/05/24 04:29:15;;;;;;;26.10;11.23;;;;;;;;;;5013040;28;93334;-79
2022/05/24 04:31:41;;;;;;;22.88;11.20;;;;;;;;;;5013593;28;93352;-79
2022/05/24 04:34:08;;;;;;;21.17;10.40;;;;;;;;;;5013356;28;94163;-80
2022/05/24 04:36:35;;;;;;;16.73;9.70;;;;;;;;;;5011002;28;92433;-79
2022/05/24 04:39:01;;;;;;;17.80;10.57;;;;;;;;;;5013921;28;94664;-79
2022/05/24 04:44:12;;;;;;;24.23;10.90;;;;;;;;;;5014042;28;92503;-80
2022/05/24 04:49:24;;;;;;;26.73;12.05;;;;;;;;;;5011734;28;93091;-80
2022/05/24 04:51:54;;;;;;;25.00;11.95;;;;;;;;;;5013844;28;94065;-79
2022/05/24 04:54:20;;;;;;;18.25;11.90;;;;;;;;;;5006724;28;92960;-80
2022/05/24 04:56:47;;;;;;;18.45;11.43;;;;;;;;;;5010419;28;93255;-79
2022/05/24 04:59:16;;;;;;;30.73;12.27;;;;;;;;;;5009921;28;93805;-79
2022/05/24 05:01:43;;;;;;;21.33;12.40;;;;;;;;;;5010294;28;92501;-80
2022/05/24 05:04:09;;;;;;;19.80;12.38;;;;;;;;;;5012749;28;91764;-79
2022/05/24 05:06:36;;;;;;;18.80;12.02;;;;;;;;;;5008052;28;93819;-79
2022/05/24 05:09:02;;;;;;;23.77;12.77;;;;;;;;;;5011371;28;92396;-79
2022/05/24 05:11:29;;;;;;;19.35;10.80;;;;;;;;;;5011924;28;95272;-79
2022/05/24 05:13:55;;;;;;;27.33;13.20;;;;;;;;;;5012746;28;94752;-79
2022/05/24 05:16:21;;;;;;;22.15;12.75;;;;;;;;;;5008127;28;92963;-79
2022/05/24 05:18:48;;;;;;;23.42;12.77;;;;;;;;;;5012443;28;93120;-80
2022/05/24 05:21:14;;;;;;;22.33;14.00;;;;;;;;;;5013380;28;94163;-77
2022/05/24 05:23:41;;;;;;;28.20;12.50;;;;;;;;;;4999761;28;92686;-79
2022/05/24 05:26:08;;;;;;;19.02;12.90;;;;;;;;;;5020179;28;93859;-79
2022/05/24 05:28:35;;;;;;;17.13;12.05;;;;;;;;;;5020875;28;93416;-78
2022/05/24 05:31:17;;;;;;;19.70;12.50;;;;;;;;;;5015874;28;93460;-78
2022/05/24 05:33:44;;;;;;;21.10;10.60;;;;;;;;;;5010830;28;93342;-79
2022/05/24 05:36:11;;;;;;;17.27;10.65;;;;;;;;;;5010272;28;94836;-79
2022/05/24 05:38:44;;;;;;;24.88;8.95;;;;;;;;;;5010655;28;96382;-79
2022/05/24 05:41:10;;;;;;;15.27;8.82;;;;;;;;;;5013424;28;94041;-79
2022/05/24 05:43:37;;;;;;;15.55;7.97;;;;;;;;;;5013242;28;92479;-79
2022/05/24 05:46:04;;;;;;;16.45;8.98;;;;;;;;;;5013207;28;94104;-79
2022/05/24 05:48:30;;;;;;;18.75;9.05;;;;;;;;;;5006926;28;93237;-79
2022/05/24 05:50:57;;;;;;;17.23;9.07;;;;;;;;;;5015977;28;92898;-79
2022/05/24 05:53:23;;;;;;;18.35;8.55;;;;;;;;;;5013525;28;93495;-79
2022/05/24 05:55:49;;;;;;;15.95;9.07;;;;;;;;;;5012653;28;92443;-79
2022/05/24 05:58:16;;;;;;;11.93;8.73;;;;;;;;;;5011608;28;94089;-79
2022/05/24 06:00:42;;;;;;;16.23;9.38;;;;;;;;;;5011250;28;96458;-79
2022/05/24 06:03:09;;;;;;;16.10;9.30;;;;;;;;;;5008110;28;92604;-79
2022/05/24 06:05:35;;;;;;;16.42;8.77;;;;;;;;;;4998081;28;93740;-79
2022/05/24 06:08:02;;;;;;;20.08;8.77;;;;;;;;;;5011936;28;94078;-77
2022/05/24 06:10:29;;;;;;;12.27;7.18;;;;;;;;;;5016132;28;92499;-77
2022/05/24 06:12:57;;;;;;;20.45;7.03;;;;;;;;;;5012515;28;93089;-77
2022/05/24 06:15:27;;;;;;;13.23;7.18;;;;;;;;;;5012995;28;92471;-77
2022/05/24 06:17:54;;;;;;;15.35;6.75;;;;;;;;;;5012475;28;93965;-79
2022/05/24 06:20:24;;;;;;;12.13;6.60;;;;;;;;;;5009173;28;94808;-78
2022/05/24 06:22:52;;;;;;;16.05;7.28;;;;;;;;;;5013504;28;92478;-79
2022/05/24 06:25:19;;;;;;;17.17;7.53;;;;;;;;;;5010432;28;95808;-78
2022/05/24 06:27:46;;;;;;;14.25;6.50;;;;;;;;;;5007434;28;93429;-78
2022/05/24 06:30:14;;;;;;;14.05;7.07;;;;;;;;;;4997042;28;93094;-79
2022/05/24 06:32:40;;;;;;;13.88;6.68;;;;;;;;;;5015652;28;94430;-79
2022/05/24 06:35:09;;;;;;;13.80;7.38;;;;;;;;;;5010154;28;93664;-79
2022/05/24 06:37:35;;;;;;;18.65;7.15;;;;;;;;;;5013126;28;94062;-78
2022/05/24 06:40:02;;;;;;;17.27;7.05;;;;;;;;;;5011984;28;94097;-78
2022/05/24 06:42:28;;;;;;;20.75;7.13;;;;;;;;;;5012416;28;91725;-78
2022/05/24 06:44:56;;;;;;;10.70;6.97;;;;;;;;;;5012773;28;92738;-79
2022/05/24 06:47:22;;;;;;;11.15;6.38;;;;;;;;;;5014045;28;94169;-79
2022/05/24 06:49:49;;;;;;;11.38;5.70;;;;;;;;;;5014750;28;94874;-78
2022/05/24 06:52:15;;;;;;;11.88;6.15;;;;;;;;;;5015142;28;96344;-78
2022/05/24 06:54:42;;;;;;;12.80;6.43;;;;;;;;;;5038477;27;93205;-78
2022/05/24 06:57:08;;;;;;;16.48;6.53;;;;;;;;;;5012832;27;93984;-78
2022/05/24 07:02:27;;;;;;;21.25;6.53;;;;;;;;;;4995390;28;92962;-78
2022/05/24 07:04:57;;;;;;;10.07;5.97;;;;;;;;;;4996382;28;94340;-78
2022/05/24 07:07:24;;;;;;;12.13;5.63;;;;;;;;;;4996331;28;93527;-79
2022/05/24 07:09:51;;;;;;;13.63;6.78;;;;;;;;;;5007266;28;92535;-78
2022/05/24 07:12:18;;;;;;;8.93;5.50;;;;;;;;;;5016356;28;92932;-78
2022/05/24 07:14:44;;;;;;;12.18;5.18;;;;;;;;;;5013485;28;96445;-79
2022/05/24 07:17:11;;;;;;;11.07;4.90;;;;;;;;;;5018313;28;92703;-78
2022/05/24 07:19:38;;;;;;;9.35;4.95;;;;;;;;;;5008789;28;93177;-78
2022/05/24 07:22:06;;;;;;;8.77;4.50;;;;;;;;;;5007155;28;93216;-78
2022/05/24 07:24:32;;;;;;;14.27;5.30;;;;;;;;;;5009767;28;94007;-78
2022/05/24 07:26:59;;;;;;;10.70;3.97;;;;;;;;;;5005704;28;94224;-78
2022/05/24 07:29:26;;;;;;;6.68;3.70;;;;;;;;;;4997715;28;94022;-77
2022/05/24 07:31:52;;;;;;;8.40;4.22;;;;;;;;;;4999657;28;94164;-78
2022/05/24 07:34:19;;;;;;;9.73;3.60;;;;;;;;;;4999460;28;93218;-77
2022/05/24 07:36:45;;;;;;;9.23;3.90;;;;;;;;;;4994118;28;92975;-77
2022/05/24 07:39:12;;;;;;;13.93;4.00;;;;;;;;;;5007201;28;94852;-77
2022/05/24 07:47:29;;;;;;;10.68;2.88;;;;;;;;;;4998947;28;94055;-76
2022/05/24 07:49:56;;;;;;;4.88;2.35;;;;;;;;;;5012539;28;92542;-76
2022/05/24 07:52:22;;;;;;;7.93;2.70;;;;;;;;;;4996286;28;94114;-76
2022/05/24 07:54:48;;;;;;;7.75;2.35;;;;;;;;;;5013856;28;93292;-75
2022/05/24 07:57:16;;;;;;;3.70;2.15;;;;;;;;;;5003513;28;91665;-76
2022/05/24 07:59:47;;;;;;;8.75;2.78;;;;;;;;;;5008418;28;92471;-76
2022/05/24 08:02:18;;;;;;;9.23;2.90;;;;;;;;;;5014439;28;95525;-77
2022/05/24 08:04:44;;;;;;;7.60;2.50;;;;;;;;;;5004721;28;94949;-76
2022/05/24 08:07:11;;;;;;;9.50;2.97;;;;;;;;;;4997462;28;94228;-76
2022/05/24 08:09:37;;;;;;;5.40;2.63;;;;;;;;;;5009428;28;92496;-76
2022/05/24 08:12:04;;;;;;;11.13;2.40;;;;;;;;;;5008861;28;93627;-76
2022/05/24 08:14:31;;;;;;;4.65;1.88;;;;;;;;;;5013397;28;94176;-76
2022/05/24 08:16:57;;;;;;;9.15;2.80;;;;;;;;;;5002600;28;92543;-76
2022/05/24 08:19:23;;;;;;;5.22;2.10;;;;;;;;;;4996716;28;92965;-77
2022/05/24 08:21:50;;;;;;;7.05;2.53;;;;;;;;;;5001107;28;93492;-76
2022/05/24 08:24:16;;;;;;;8.93;2.20;;;;;;;;;;4997926;28;93255;-76
2022/05/24 08:26:42;;;;;;;4.07;2.10;;;;;;;;;;4992607;28;95172;-77
2022/05/24 08:29:09;;;;;;;4.57;2.42;;;;;;;;;;4992626;28;95347;-76
2022/05/24 08:31:35;;;;;;;4.47;1.77;;;;;;;;;;4993540;28;96444;-76
2022/05/24 08:34:02;;;;;;;3.50;1.98;;;;;;;;;;4996643;28;94005;-77
2022/05/24 08:36:28;;;;;;;2.92;1.88;;;;;;;;;;5009120;28;93070;-76
2022/05/24 08:38:54;;;;;;;4.32;1.63;;;;;;;;;;5011276;28;93148;-76
2022/05/24 08:41:27;;;;;;;5.25;1.30;;;;;;;;;;5011058;28;94618;-76
2022/05/24 08:50:03;;;;;;;2.95;1.45;;;;;;;;;;4994192;28;92535;-76
2022/05/24 08:52:33;;;;;;;2.90;1.30;;;;;;;;;;5012932;28;94169;-76
2022/05/24 08:54:59;;;;;;;5.43;1.17;;;;;;;;;;4998485;28;96984;-76
2022/05/24 08:57:34;;;;;;;2.92;1.38;;;;;;;;;;4998745;28;93619;-76
2022/05/24 09:00:04;;;;;;;2.08;1.20;;;;;;;;;;5005739;28;94037;-76
2022/05/24 09:02:30;;;;;;;4.18;1.67;;;;;;;;;;5011106;28;94459;-76
2022/05/24 09:04:57;;;;;;;1.95;1.20;;;;;;;;;;5014058;28;92476;-76
2022/05/24 09:07:31;;;;;;;2.63;1.10;;;;;;;;;;5015703;28;93797;-76
2022/05/24 09:10:15;;;;;;;3.05;1.45;;;;;;;;;;5000572;28;92886;-76
2022/05/24 09:13:02;;;;;;;3.30;0.90;;;;;;;;;;4994495;28;93087;-76
2022/05/24 09:15:49;;;;;;;3.47;1.17;;;;;;;;;;4995078;28;94125;-76
2022/05/24 09:18:23;;;;;;;3.05;1.00;;;;;;;;;;4991512;28;94003;-76
2022/05/24 09:20:50;;;;;;;0.98;0.70;;;;;;;;;;4993540;28;95038;-76
2022/05/24 09:23:31;;;;;;;3.83;0.90;;;;;;;;;;4995237;28;94391;-76
2022/05/24 09:25:59;;;;;;;2.00;0.63;;;;;;;;;;5009973;28;92438;-76
2022/05/24 09:28:41;;;;;;;1.13;0.70;;;;;;;;;;5011794;28;92502;-76
2022/05/24 09:31:08;;;;;;;1.80;0.90;;;;;;;;;;5000018;28;94145;-77
2022/05/24 09:33:38;;;;;;;2.08;1.20;;;;;;;;;;5006536;28;92536;-76
2022/05/24 09:36:05;;;;;;;2.25;0.90;;;;;;;;;;5005374;28;94177;-76
2022/05/24 09:38:36;;;;;;;1.30;0.93;;;;;;;;;;5010956;28;91725;-76
2022/05/24 09:41:22;;;;;;;2.75;1.10;;;;;;;;;;5012494;28;94091;-76
2022/05/24 09:43:57;;;;;;;4.95;1.70;;;;;;;;;;4993178;28;95704;-76
2022/05/24 09:46:25;;;;;;;1.98;1.20;;;;;;;;;;4998207;28;95882;-76
2022/05/24 09:48:56;;;;;;;3.08;1.20;;;;;;;;;;5012194;28;96220;-76
2022/05/24 09:51:27;;;;;;;1.00;1.00;;;;;;;;;;4991964;28;94273;-75
2022/05/24 09:53:54;;;;;;;5.18;1.70;;;;;;;;;;4999708;28;92903;-75
2022/05/24 09:56:26;;;;;;;1.52;1.20;;;;;;;;;;5010633;28;93760;-75
2022/05/24 09:58:52;;;;;;;2.17;1.33;;;;;;;;;;4995153;28;92522;-75
2022/05/24 10:01:30;;;;;;;2.22;1.40;;;;;;;;;;5011610;28;93900;-75
2022/05/24 10:04:08;;;;;;;2.92;1.17;;;;;;;;;;5013071;28;93445;-75
2022/05/24 10:06:36;;;;;;;1.58;1.17;;;;;;;;;;5014660;28;92453;-76
2022/05/24 10:09:18;;;;;;;4.28;1.30;;;;;;;;;;4997171;28;93890;-76
2022/05/24 10:11:52;;;;;;;1.87;1.30;;;;;;;;;;4990143;28;96695;-76
2022/05/24 10:14:34;;;;;;;4.50;1.33;;;;;;;;;;5003209;28;92589;-76
2022/05/24 10:17:07;;;;;;;1.65;1.40;;;;;;;;;;4999005;28;94521;-77
2022/05/24 10:19:52;;;;;;;2.40;1.60;;;;;;;;;;4997305;28;93908;-76
2022/05/24 10:22:33;;;;;;;3.50;1.67;;;;;;;;;;5010832;28;94106;-76
2022/05/24 10:25:08;;;;;;;2.28;1.55;;;;;;;;;;5018650;28;94060;-74
2022/05/24 10:27:53;;;;;;;1.52;1.38;;;;;;;;;;5016454;28;92453;-76
2022/05/24 10:30:24;;;;;;;1.95;1.33;;;;;;;;;;4998392;28;93110;-76
2022/05/24 10:39:05;;;;;;;4.45;1.80;;;;;;;;;;4999689;28;95359;-78
2022/05/24 10:41:37;;;;;;;2.28;1.30;;;;;;;;;;4995358;28;92439;-80
2022/05/24 10:44:05;;;;;;;3.55;1.70;;;;;;;;;;5004545;28;93878;-80
2022/05/24 10:46:40;;;;;;;4.78;1.73;;;;;;;;;;4998153;28;93616;-79
2022/05/24 10:49:14;;;;;;;5.95;1.67;;;;;;;;;;5001640;28;92984;-80
2022/05/24 10:51:47;;;;;;;3.95;1.48;;;;;;;;;;4998760;28;92864;-79
2022/05/24 10:54:21;;;;;;;6.97;1.60;;;;;;;;;;5000070;28;94558;-79
2022/05/24 10:56:50;;;;;;;2.45;1.00;;;;;;;;;;4996749;28;93214;-79
2022/05/24 10:59:36;;;;;;;2.25;1.20;;;;;;;;;;5004790;28;93022;-79
2022/05/24 11:02:10;;;;;;;2.28;1.25;;;;;;;;;;5006243;28;93720;-79
2022/05/24 11:04:47;;;;;;;4.53;1.73;;;;;;;;;;4998735;28;97065;-79
2022/05/24 11:07:16;;;;;;;2.92;1.55;;;;;;;;;;4999642;28;94321;-79
2022/05/24 11:09:46;;;;;;;5.03;2.10;;;;;;;;;;5000946;28;93912;-79
2022/05/24 11:12:23;;;;;;;4.03;1.60;;;;;;;;;;5005675;28;93194;-78
2022/05/24 11:14:53;;;;;;;2.53;1.70;;;;;;;;;;4993964;28;94697;-76
2022/05/24 11:17:20;;;;;;;4.15;1.80;;;;;;;;;;4994786;28;92557;-76
2022/05/24 11:19:49;;;;;;;2.15;1.60;;;;;;;;;;4993717;28;93961;-76
2022/05/24 11:22:20;;;;;;;2.25;1.48;;;;;;;;;;4995372;28;93343;-77
2022/05/24 11:25:08;;;;;;;6.78;2.28;;;;;;;;;;5002782;28;94183;-77
2022/05/24 11:27:36;;;;;;;1.52;1.42;;;;;;;;;;5002257;28;94115;-77
2022/05/24 11:30:09;;;;;;;7.20;1.77;;;;;;;;;;4991968;28;94917;-77
2022/05/24 11:32:37;;;;;;;2.50;1.63;;;;;;;;;;4998604;28;95648;-77
2022/05/24 11:35:07;;;;;;;4.00;1.80;;;;;;;;;;4990009;28;94047;-77
2022/05/24 11:37:35;;;;;;;4.22;1.77;;;;;;;;;;4993782;28;92897;-77
2022/05/24 11:40:20;;;;;;;4.78;2.17;;;;;;;;;;4995258;28;93812;-77
2022/05/24 11:42:47;;;;;;;3.55;1.90;;;;;;;;;;4995190;28;94216;-77
2022/05/24 11:45:28;;;;;;;5.85;2.00;;;;;;;;;;5002561;28;94695;-77
2022/05/24 11:47:55;;;;;;;5.10;1.90;;;;;;;;;;4995703;28;94312;-77
2022/05/24 11:50:30;;;;;;;3.22;2.13;;;;;;;;;;4997906;28;92700;-78
2022/05/24 11:53:07;;;;;;;4.40;2.30;;;;;;;;;;5009432;28;93548;-77
2022/05/24 11:55:42;;;;;;;5.43;1.58;;;;;;;;;;4995756;27;96478;-74
2022/05/24 11:58:21;;;;;;;6.55;2.05;;;;;;;;;;5013032;28;92906;-78
2022/05/24 12:01:08;;;;;;;4.68;1.92;;;;;;;;;;5013998;28;93221;-76
2022/05/24 12:09:22;;;;;;;7.03;1.92;;;;;;;;;;4995514;28;93826;-80
2022/05/24 12:12:08;;;;;;;1.40;1.30;;;;;;;;;;4997396;28;94654;-79
2022/05/24 12:14:36;;;;;;;3.05;1.73;;;;;;;;;;4995525;28;93809;-77
2022/05/24 12:17:05;;;;;;;6.78;3.33;;;;;;;;;;4996337;28;95124;-77
2022/05/24 12:19:35;;;;;;;5.55;2.58;;;;;;;;;;4999821;28;92683;-77
2022/05/24 12:22:03;;;;;;;2.40;1.80;;;;;;;;;;4991786;28;96702;-77
2022/05/24 12:24:42;;;;;;;3.95;1.48;;;;;;;;;;4994851;28;94155;-77
2022/05/24 12:27:11;;;;;;;5.70;1.52;;;;;;;;;;4993768;28;94767;-77
2022/05/24 12:29:40;;;;;;;4.45;2.00;;;;;;;;;;4994617;28;93926;-77
2022/05/24 12:32:07;;;;;;;3.60;1.52;;;;;;;;;;4999254;28;93926;-77
2022/05/24 12:34:33;;;;;;;4.32;1.50;;;;;;;;;;5010606;28;92765;-78
2022/05/24 12:37:04;;;;;;;3.40;1.83;;;;;;;;;;4989694;28;94171;-78
2022/05/24 12:39:35;;;;;;;3.58;1.50;;;;;;;;;;4996539;28;91677;-78
2022/05/24 12:42:05;;;;;;;6.88;1.65;;;;;;;;;;5004426;28;92516;-78
2022/05/24 12:44:38;;;;;;;4.35;1.90;;;;;;;;;;5004766;28;94598;-77
2022/05/24 12:47:04;;;;;;;2.25;1.42;;;;;;;;;;5011203;28;96180;-78
2022/05/24 12:49:32;;;;;;;6.93;1.90;;;;;;;;;;4994420;28;95890;-77
2022/05/24 12:52:12;;;;;;;3.75;1.40;;;;;;;;;;4994191;28;94086;-78
2022/05/24 12:54:43;;;;;;;3.30;1.63;;;;;;;;;;4995687;28;92498;-78
2022/05/24 12:57:14;;;;;;;3.00;1.40;;;;;;;;;;4994535;28;93747;-78
2022/05/24 12:59:42;;;;;;;6.97;2.08;;;;;;;;;;4994155;28;94039;-77
2022/05/24 13:02:15;;;;;;;4.75;1.42;;;;;;;;;;5010492;28;94189;-78
2022/05/24 13:04:43;;;;;;;2.80;1.48;;;;;;;;;;5012604;28;93457;-78
2022/05/24 13:07:36;;;;;;;17.23;2.88;;;;;;;;;;4992395;28;93053;-77
2022/05/24 13:10:06;;;;;;;3.70;1.65;;;;;;;;;;4994144;28;93307;-78
2022/05/24 13:12:32;;;;;;;2.45;1.90;;;;;;;;;;4992249;28;96531;-78
2022/05/24 13:15:03;;;;;;;2.13;1.50;;;;;;;;;;4993918;28;92946;-78
2022/05/24 13:17:37;;;;;;;3.40;1.50;;;;;;;;;;4996548;28;94078;-77
2022/05/24 13:20:08;;;;;;;5.40;1.58;;;;;;;;;;4994298;28;92606;-77
2022/05/24 13:22:45;;;;;;;3.55;1.80;;;;;;;;;;4993986;27;93258;-77
2022/05/24 13:25:18;;;;;;;2.17;1.35;;;;;;;;;;4994173;28;94281;-77
2022/05/24 13:27:44;;;;;;;;;;;;;;;;;;4994410;28;92730;-77
2022/05/24 13:35:46;;;;;;;4.15;1.23;;;;;;;;;;4993945;28;92447;-77
2022/05/24 13:38:13;;;;;;;4.30;1.30;;;;;;;;;;5012044;28;94871;-77
2022/05/24 13:40:40;;;;;;;1.02;0.93;;;;;;;;;;5016651;28;94259;-77
2022/05/24 13:43:07;;;;;;;2.58;1.05;;;;;;;;;;5013194;28;94073;-77
2022/05/24 13:45:34;;;;;;;2.97;1.10;;;;;;;;;;5009574;28;94549;-77
2022/05/24 13:48:20;;;;;;;1.70;0.98;;;;;;;;;;4993913;28;92554;-77
2022/05/24 13:50:46;;;;;;;2.53;0.73;;;;;;;;;;4993240;28;93990;-77
2022/05/24 13:53:33;;;;;;;1.38;0.95;;;;;;;;;;4993657;28;94488;-77
2022/05/24 13:56:01;;;;;;;4.57;1.10;;;;;;;;;;4994061;28;91682;-77
2022/05/24 13:58:31;;;;;;;1.30;0.85;;;;;;;;;;4999511;28;93156;-77
2022/05/24 14:01:03;;;;;;;1.95;0.80;;;;;;;;;;5013678;28;92499;-77
2022/05/24 14:03:40;;;;;;;1.45;1.10;;;;;;;;;;5014238;28;95316;-77
2022/05/24 14:06:07;;;;;;;1.33;0.90;;;;;;;;;;5013656;28;93321;-77
2022/05/24 14:08:36;;;;;;;1.10;0.90;;;;;;;;;;5013353;28;92481;-77
2022/05/24 14:11:05;;;;;;;1.90;0.60;;;;;;;;;;5010658;28;93886;-77
2022/05/24 14:13:31;;;;;;;1.35;0.80;;;;;;;;;;5012822;28;94112;-77
2022/05/24 14:16:00;;;;;;;3.00;0.80;;;;;;;;;;5013413;28;92516;-77
2022/05/24 14:18:26;;;;;;;1.77;0.90;;;;;;;;;;5012300;28;93116;-77
2022/05/24 14:20:53;;;;;;;2.40;1.00;;;;;;;;;;5013830;28;93797;-77
2022/05/24 14:23:20;;;;;;;3.08;0.90;;;;;;;;;;5013637;28;93100;-78
2022/05/24 14:25:47;;;;;;;1.58;0.80;;;;;;;;;;5015644;28;93904;-77
2022/05/24 14:28:14;;;;;;;5.03;0.98;;;;;;;;;;5011514;28;94855;-77
2022/05/24 14:30:40;;;;;;;1.00;1.00;;;;;;;;;;5003570;28;96354;-77
2022/05/24 14:33:07;;;;;;;2.05;0.90;;;;;;;;;;4992096;28;93796;-77
2022/05/24 14:35:33;;;;;;;3.75;0.93;;;;;;;;;;5000047;28;92475;-77
2022/05/24 14:38:00;;;;;;;4.57;0.75;;;;;;;;;;4992642;28;93936;-77
2022/05/24 14:40:27;;;;;;;1.90;0.80;;;;;;;;;;5011474;28;93625;-77
2022/05/24 14:42:53;;;;;;;0.70;0.70;;;;;;;;;;5013163;28;92524;-77
2022/05/24 14:45:20;;;;;;;3.83;0.70;;;;;;;;;;5015920;28;93865;-77
2022/05/24 14:47:47;;;;;;;1.25;0.70;;;;;;;;;;5009009;28;93587;-76
2022/05/24 14:50:14;;;;;;;1.45;0.85;;;;;;;;;;4996515;28;93931;-77
2022/05/24 14:52:41;;;;;;;0.70;0.60;;;;;;;;;;4993692;28;95906;-77
2022/05/24 14:55:11;;;;;;;2.30;0.70;;;;;;;;;;4996182;28;92422;-77
2022/05/24 14:57:37;;;;;;;2.67;0.77;;;;;;;;;;4998724;28;94046;-77
2022/05/24 15:00:18;;;;;;;0.80;0.60;;;;;;;;;;5005242;28;94923;-76
2022/05/24 15:02:44;;;;;;;1.02;0.70;;;;;;;;;;4995883;28;92462;-76
2022/05/24 15:05:11;;;;;;;2.85;0.80;;;;;;;;;;4996494;28;93847;-76
2022/05/24 15:15:53;;;;;;;3.10;0.60;;;;;;;;;;5005201;28;92610;-75
2022/05/24 15:18:19;;;;;;;0.50;0.50;;;;;;;;;;5002689;28;95235;-73
2022/05/24 15:20:46;;;;;;;3.15;1.30;;;;;;;;;;4999104;28;94290;-74
2022/05/24 15:23:22;;;;;;;3.10;0.80;;;;;;;;;;4995941;28;94135;-73
2022/05/24 15:25:56;;;;;;;0.98;0.70;;;;;;;;;;4997960;28;93107;-74
2022/05/24 15:28:25;;;;;;;1.52;0.88;;;;;;;;;;4994511;28;94243;-72
2022/05/24 15:30:53;;;;;;;3.80;1.00;;;;;;;;;;4996982;28;94266;-74
2022/05/24 15:33:19;;;;;;;2.10;1.00;;;;;;;;;;4994011;28;95150;-72
2022/05/24 15:35:45;;;;;;;1.73;0.90;;;;;;;;;;4997562;28;91807;-73
2022/05/24 15:38:12;;;;;;;1.00;0.90;;;;;;;;;;4995220;28;93401;-74
2022/05/24 15:40:38;;;;;;;3.35;0.90;;;;;;;;;;4993439;28;93437;-73
2022/05/24 15:43:05;;;;;;;0.93;0.90;;;;;;;;;;4991197;28;95890;-73
2022/05/24 15:45:32;;;;;;;2.15;0.88;;;;;;;;;;4995182;28;96471;-73
2022/05/24 15:47:58;;;;;;;3.65;0.70;;;;;;;;;;4997774;28;95606;-74
2022/05/24 15:50:25;;;;;;;0.60;0.60;;;;;;;;;;4994842;28;92502;-74